createdAt,value
2019-02-05T00:00:37.563Z,90.00
2019-02-05T00:03:10.418Z,90.10
2019-02-05T00:05:38.698Z,90.00
2019-02-05T00:08:06.955Z,89.80
2019-02-05T00:10:35.189Z,89.50
2019-02-05T00:13:03.459Z,89.80
2019-02-05T00:15:32.106Z,89.60
2019-02-05T00:18:00.341Z,89.20
2019-02-05T00:20:28.597Z,88.90
2019-02-05T00:22:56.838Z,89.60
2019-02-05T00:25:25.085Z,89.20
2019-02-05T00:27:53.345Z,89.50
2019-02-05T00:30:21.593Z,89.70
2019-02-05T00:32:49.833Z,89.30
2019-02-05T00:35:18.269Z,89.00
2019-02-05T00:37:46.509Z,89.00
2019-02-05T00:40:15.498Z,89.20
2019-02-05T00:42:43.733Z,89.30
2019-02-05T00:45:13.957Z,89.50
2019-02-05T00:47:42.466Z,89.50
2019-02-05T00:50:13.216Z,89.10
2019-02-05T00:52:41.463Z,89.20
2019-02-05T00:55:12.545Z,89.50
2019-02-05T00:57:40.797Z,90.00
2019-02-05T01:00:32.019Z,90.10
2019-02-05T01:03:00.300Z,90.30
2019-02-05T01:05:28.556Z,90.70
2019-02-05T01:07:56.808Z,90.90
2019-02-05T01:10:25.221Z,91.00
2019-02-05T01:12:53.929Z,90.90
2019-02-05T01:15:23.558Z,90.30
2019-02-05T01:17:51.807Z,90.40
2019-02-05T01:20:21.793Z,89.70
2019-02-05T01:22:50.052Z,89.00
2019-02-05T01:25:19.364Z,88.00
2019-02-05T01:27:47.978Z,87.50
2019-02-05T01:30:22.307Z,88.30
2019-02-05T01:32:50.827Z,89.30
2019-02-05T01:35:19.070Z,89.60
2019-02-05T01:37:47.328Z,90.00
2019-02-05T01:40:23.118Z,90.00
2019-02-05T01:42:51.437Z,90.20
2019-02-05T01:45:20.815Z,90.20
2019-02-05T01:47:49.075Z,90.10
2019-02-05T01:50:20.097Z,90.40
2019-02-05T01:52:48.330Z,90.50
2019-02-05T01:55:16.592Z,90.70
2019-02-05T01:57:44.938Z,90.90
2019-02-05T02:00:18.360Z,91.10
2019-02-05T02:02:46.610Z,91.10
2019-02-05T02:05:17.578Z,91.10
2019-02-05T02:07:45.911Z,91.00
2019-02-05T02:10:17.277Z,91.20
2019-02-05T02:12:45.732Z,91.10
2019-02-05T02:15:13.974Z,91.00
2019-02-05T02:17:42.214Z,91.00
2019-02-05T02:20:20.807Z,91.00
2019-02-05T02:22:49.055Z,91.20
2019-02-05T02:25:17.607Z,91.20
2019-02-05T02:27:46.363Z,91.40
2019-02-05T02:30:32.547Z,91.30
2019-02-05T02:33:00.862Z,91.40
2019-02-05T02:35:29.199Z,91.50
2019-02-05T02:37:57.852Z,91.50
2019-02-05T02:40:26.088Z,91.40
2019-02-05T02:42:54.338Z,91.40
2019-02-05T02:45:22.611Z,91.30
2019-02-05T02:47:50.897Z,91.30
2019-02-05T02:50:20.797Z,91.30
2019-02-05T02:52:49.420Z,91.30
2019-02-05T02:55:17.760Z,91.10
2019-02-05T02:57:46.096Z,91.00
2019-02-05T03:00:21.778Z,91.10
2019-02-05T03:02:51.370Z,91.30
2019-02-05T03:05:21.577Z,91.40
2019-02-05T03:07:50.148Z,91.30
2019-02-05T03:10:24.221Z,91.30
2019-02-05T03:12:52.474Z,91.20
2019-02-05T03:15:20.732Z,91.40
2019-02-05T03:17:48.988Z,91.40
2019-02-05T03:20:17.510Z,91.40
2019-02-05T03:22:45.845Z,91.10
2019-02-05T03:25:20.469Z,91.00
2019-02-05T03:27:48.787Z,91.00
2019-02-05T03:30:18.786Z,91.20
2019-02-05T03:32:47.109Z,91.30
2019-02-05T03:35:15.428Z,91.30
2019-02-05T03:37:43.680Z,91.30
2019-02-05T03:40:27.290Z,91.50
2019-02-05T03:42:55.534Z,91.70
2019-02-05T03:45:24.414Z,92.00
2019-02-05T03:47:53.066Z,92.20
2019-02-05T03:50:22.276Z,92.40
2019-02-05T03:52:53.844Z,92.60
2019-02-05T03:55:25.730Z,93.00
2019-02-05T03:58:00.083Z,93.10
2019-02-05T04:00:36.845Z,93.20
2019-02-05T04:03:17.067Z,93.00
2019-02-05T04:05:57.584Z,92.80
2019-02-05T04:08:34.941Z,92.80
2019-02-05T04:11:26.155Z,92.90
2019-02-05T04:14:15.838Z,92.60
2019-02-05T04:17:12.576Z,93.00
2019-02-05T04:19:52.340Z,93.10
2019-02-05T04:22:32.607Z,92.80
2019-02-05T04:25:18.912Z,92.60
2019-02-05T04:27:55.766Z,92.50
2019-02-05T04:30:45.563Z,92.50
2019-02-05T04:33:33.970Z,92.50
2019-02-05T04:36:29.930Z,92.60
2019-02-05T04:39:16.450Z,92.80
2019-02-05T04:41:50.604Z,92.80
2019-02-05T04:44:30.957Z,92.80
2019-02-05T04:47:23.593Z,92.90
2019-02-05T04:50:09.449Z,92.80
2019-02-05T04:52:58.881Z,92.90
2019-02-05T04:55:30.397Z,93.00
2019-02-05T04:58:23.294Z,93.00
2019-02-05T05:01:15.831Z,93.00
2019-02-05T05:04:05.721Z,93.10
2019-02-05T05:07:00.859Z,92.80
2019-02-05T05:09:52.259Z,92.80
2019-02-05T05:12:20.983Z,92.80
2019-02-05T05:14:49.336Z,92.90
2019-02-05T05:17:17.572Z,92.90
2019-02-05T05:19:46.180Z,92.40
2019-02-05T05:22:14.485Z,92.60
2019-02-05T05:24:42.830Z,92.60
2019-02-05T05:27:12.500Z,92.70
2019-02-05T05:29:41.475Z,92.60
2019-02-05T05:32:09.817Z,92.70
2019-02-05T05:34:38.130Z,92.60
2019-02-05T05:37:05.558Z,92.50
2019-02-05T05:39:33.812Z,92.60
2019-02-05T05:42:02.075Z,92.70
2019-02-05T05:44:30.353Z,92.80
2019-02-05T05:46:58.694Z,92.90
2019-02-05T05:49:27.029Z,92.80
2019-02-05T05:51:55.300Z,92.70
2019-02-05T05:54:23.571Z,92.70
2019-02-05T05:56:51.886Z,92.90
2019-02-05T05:59:20.176Z,92.90
2019-02-05T06:01:48.474Z,92.90
2019-02-05T06:04:16.819Z,93.00
2019-02-05T06:06:45.380Z,93.00
2019-02-05T06:09:13.618Z,93.00
2019-02-05T06:11:41.884Z,93.10
2019-02-05T06:14:10.148Z,93.10
2019-02-05T06:16:38.403Z,93.20
2019-02-05T06:19:06.683Z,93.10
2019-02-05T06:21:34.921Z,93.20
2019-02-05T06:24:03.876Z,93.30
2019-02-05T06:26:32.210Z,93.60
2019-02-05T06:29:00.448Z,93.60
2019-02-05T06:31:28.739Z,93.30
2019-02-05T06:33:56.988Z,93.40
2019-02-05T06:36:25.299Z,93.30
2019-02-05T06:38:53.587Z,93.40
2019-02-05T06:41:22.205Z,93.40
2019-02-05T06:43:50.449Z,93.50
2019-02-05T06:46:18.702Z,93.50
2019-02-05T06:48:46.976Z,93.50
2019-02-05T06:51:15.317Z,93.50
2019-02-05T06:53:43.566Z,93.50
2019-02-05T06:56:11.898Z,93.60
2019-02-05T06:58:46.562Z,93.50
2019-02-05T07:01:10.520Z,93.40
2019-02-05T07:03:38.767Z,93.40
2019-02-05T07:06:07.015Z,93.40
2019-02-05T07:08:35.280Z,93.40
2019-02-05T07:11:03.532Z,93.40
2019-02-05T07:13:31.803Z,93.40
2019-02-05T07:16:00.431Z,93.30
2019-02-05T07:18:28.762Z,93.20
2019-02-05T07:20:57.035Z,93.10
2019-02-05T07:23:25.285Z,93.00
2019-02-05T07:25:53.582Z,93.00
2019-02-05T07:28:21.874Z,93.00
2019-02-05T07:30:50.192Z,93.00
2019-02-05T07:33:18.817Z,92.90
2019-02-05T07:35:47.075Z,92.90
2019-02-05T07:38:15.390Z,92.90
2019-02-05T07:40:43.724Z,93.00
2019-02-05T07:43:12.067Z,92.90
2019-02-05T07:45:40.399Z,92.70
2019-02-05T07:48:08.713Z,92.70
2019-02-05T07:50:36.970Z,92.60
2019-02-05T07:53:05.609Z,92.70
2019-02-05T07:55:33.947Z,92.80
2019-02-05T07:58:02.186Z,93.20
2019-02-05T08:00:30.895Z,92.60
2019-02-05T08:02:59.155Z,92.60
2019-02-05T08:05:30.175Z,92.40
2019-02-05T08:07:58.488Z,92.10
2019-02-05T08:10:26.753Z,92.00
2019-02-05T08:12:55.084Z,91.80
2019-02-05T08:15:25.878Z,91.50
2019-02-05T08:17:54.118Z,91.70
2019-02-05T08:20:22.382Z,91.90
2019-02-05T08:22:50.707Z,91.60
2019-02-05T08:25:19.060Z,91.90
2019-02-05T08:27:47.313Z,91.80
2019-02-05T08:30:27.042Z,91.60
2019-02-05T08:32:56.264Z,91.30
2019-02-05T08:35:24.578Z,91.20
2019-02-05T08:37:52.832Z,91.20
2019-02-05T08:40:22.606Z,91.10
2019-02-05T08:42:50.859Z,90.80
2019-02-05T08:45:34.197Z,90.70
2019-02-05T08:48:02.445Z,90.70
2019-02-05T08:50:30.973Z,90.80
2019-02-05T08:52:59.299Z,90.60
2019-02-05T08:55:30.655Z,90.40
2019-02-05T08:58:06.271Z,89.70
2019-02-05T09:00:39.170Z,90.00
2019-02-05T09:03:09.183Z,89.80
2019-02-05T09:05:37.589Z,89.70
2019-02-05T09:08:05.977Z,88.80
2019-02-05T09:10:36.573Z,88.80
2019-02-05T09:13:05.266Z,87.40
2019-02-05T09:15:33.792Z,87.00
2019-02-05T09:18:02.111Z,86.80
2019-02-05T09:20:30.456Z,86.30
2019-02-05T09:22:58.728Z,86.10
2019-02-05T09:25:27.044Z,86.30
2019-02-05T09:27:55.289Z,86.00
2019-02-05T09:30:32.889Z,84.60
2019-02-05T09:33:04.669Z,84.00
2019-02-05T09:35:32.977Z,83.40
2019-02-05T09:38:01.403Z,81.80
2019-02-05T09:40:32.856Z,82.20
2019-02-05T09:43:01.174Z,81.30
2019-02-05T09:45:30.478Z,80.00
2019-02-05T09:47:59.340Z,78.80
2019-02-05T09:50:30.688Z,78.00
2019-02-05T09:52:57.578Z,76.90
2019-02-05T09:55:25.889Z,76.00
2019-02-05T09:57:54.141Z,74.80
2019-02-05T10:00:34.140Z,74.00
2019-02-05T10:03:02.402Z,72.80
2019-02-05T10:05:34.554Z,71.90
2019-02-05T10:08:02.830Z,71.20
2019-02-05T10:10:31.072Z,70.40
2019-02-05T10:12:59.389Z,70.20
2019-02-05T10:15:41.880Z,68.40
2019-02-05T10:18:12.423Z,66.50
2019-02-05T10:20:40.824Z,65.80
2019-02-05T10:23:09.398Z,64.50
2019-02-05T10:25:57.141Z,64.20
2019-02-05T10:28:25.787Z,63.00
2019-02-05T10:30:54.123Z,60.20
2019-02-05T10:33:22.434Z,60.40
2019-02-05T10:35:50.700Z,60.20
2019-02-05T10:38:19.027Z,60.10
2019-02-05T10:40:47.289Z,58.90
2019-02-05T10:43:15.631Z,59.60
2019-02-05T10:45:44.255Z,60.50
2019-02-05T10:48:12.505Z,58.90
2019-02-05T10:50:40.776Z,57.60
2019-02-05T10:53:09.035Z,57.20
2019-02-05T10:55:37.285Z,57.10
2019-02-05T10:58:05.560Z,56.10
2019-02-05T11:00:33.882Z,55.40
2019-02-05T11:03:07.303Z,56.40
2019-02-05T11:05:35.616Z,55.40
2019-02-05T11:08:04.137Z,53.50
2019-02-05T11:10:32.453Z,53.50
2019-02-05T11:13:00.809Z,53.70
2019-02-05T11:15:33.407Z,54.10
2019-02-05T11:18:03.196Z,52.30
2019-02-05T11:20:31.738Z,51.90
2019-02-05T11:23:00.066Z,51.50
2019-02-05T11:25:28.392Z,51.00
2019-02-05T11:27:56.628Z,49.90
2019-02-05T11:30:27.733Z,50.60
2019-02-05T11:32:56.057Z,48.00
2019-02-05T11:35:24.406Z,47.40
2019-02-05T11:37:53.197Z,46.80
2019-02-05T11:40:23.962Z,46.90
2019-02-05T11:42:52.343Z,47.20
2019-02-05T11:45:20.874Z,45.30
2019-02-05T11:47:49.437Z,45.40
2019-02-05T11:50:18.201Z,46.30
2019-02-05T11:52:46.538Z,45.60
2019-02-05T11:55:17.686Z,45.70
2019-02-05T11:57:45.972Z,46.60
2019-02-05T12:00:17.892Z,46.20
2019-02-05T12:02:48.992Z,45.90
2019-02-05T12:05:16.236Z,45.50
2019-02-05T12:07:46.469Z,45.80
2019-02-05T12:10:15.712Z,47.10
2019-02-05T12:12:43.977Z,45.60
2019-02-05T12:15:15.395Z,45.60
2019-02-05T12:17:43.699Z,46.10
2019-02-05T12:20:19.613Z,45.70
2019-02-05T12:22:49.115Z,45.40
2019-02-05T12:25:22.904Z,46.20
2019-02-05T12:27:51.138Z,44.90
2019-02-05T12:30:22.034Z,45.50
2019-02-05T12:32:50.280Z,45.50
2019-02-05T12:35:18.541Z,44.50
2019-02-05T12:37:46.787Z,45.00
2019-02-05T12:40:17.279Z,44.00
2019-02-05T12:42:46.142Z,44.10
2019-02-05T12:45:29.965Z,43.40
2019-02-05T12:47:58.278Z,44.10
2019-02-05T12:50:34.976Z,44.70
2019-02-05T12:53:03.615Z,44.90
2019-02-05T12:55:31.931Z,44.50
2019-02-05T12:58:00.216Z,42.50
2019-02-05T13:00:37.164Z,42.30
2019-02-05T13:03:06.074Z,42.10
2019-02-05T13:05:34.335Z,42.00
2019-02-05T13:08:05.314Z,41.20
2019-02-05T13:10:41.759Z,41.10
2019-02-05T13:13:10.084Z,41.70
2019-02-05T13:15:38.343Z,41.40
2019-02-05T13:18:06.671Z,40.90
2019-02-05T13:20:34.926Z,42.70
2019-02-05T13:23:03.956Z,42.60
2019-02-05T13:25:33.050Z,41.10
2019-02-05T13:28:01.318Z,40.40
2019-02-05T13:30:33.595Z,38.50
2019-02-05T13:33:01.845Z,40.00
2019-02-05T13:35:30.473Z,39.40
2019-02-05T13:37:58.845Z,39.90
2019-02-05T13:40:27.977Z,39.50
2019-02-05T13:42:56.642Z,40.10
2019-02-05T13:45:33.481Z,41.00
2019-02-05T13:48:03.534Z,40.00
2019-02-05T13:50:33.787Z,40.20
2019-02-05T13:53:02.242Z,39.60
2019-02-05T13:55:35.586Z,41.30
2019-02-05T13:58:03.972Z,41.80
2019-02-05T14:00:41.087Z,41.50
2019-02-05T14:03:10.473Z,41.70
2019-02-05T14:05:38.918Z,41.90
2019-02-05T14:08:07.286Z,41.40
2019-02-05T14:10:37.679Z,42.40
2019-02-05T14:13:06.000Z,42.70
2019-02-05T14:15:36.857Z,42.80
2019-02-05T14:18:06.109Z,43.20
2019-02-05T14:20:34.363Z,43.40
2019-02-05T14:23:02.603Z,41.70
2019-02-05T14:25:30.834Z,41.90
2019-02-05T14:27:59.088Z,41.10
2019-02-05T14:30:35.655Z,41.00
2019-02-05T14:33:04.464Z,38.60
2019-02-05T14:35:32.741Z,38.10
2019-02-05T14:38:00.999Z,38.90
2019-02-05T14:40:29.230Z,38.80
2019-02-05T14:42:57.508Z,40.00
2019-02-05T14:45:25.751Z,40.90
2019-02-05T14:47:54.009Z,41.30
2019-02-05T14:50:36.259Z,41.50
2019-02-05T14:53:05.351Z,42.10
2019-02-05T14:55:33.597Z,41.60
2019-02-05T14:58:01.931Z,41.20
2019-02-05T15:00:32.002Z,41.90
2019-02-05T15:03:02.217Z,43.80
2019-02-05T15:05:30.308Z,44.50
2019-02-05T15:07:58.556Z,43.20
2019-02-05T15:10:26.814Z,43.80
2019-02-05T15:12:55.057Z,42.90
2019-02-05T15:15:30.850Z,41.40
2019-02-05T15:17:59.100Z,42.50
2019-02-05T15:20:36.153Z,42.30
2019-02-05T15:23:05.469Z,42.70
2019-02-05T15:25:33.713Z,44.40
2019-02-05T15:28:01.995Z,44.10
2019-02-05T15:30:36.049Z,43.80
2019-02-05T15:33:06.357Z,44.90
2019-02-05T15:35:34.623Z,45.80
2019-02-05T15:38:02.866Z,46.00
2019-02-05T15:40:31.137Z,47.00
2019-02-05T15:42:59.385Z,48.70
2019-02-05T15:45:28.004Z,52.40
2019-02-05T15:47:56.247Z,54.70
2019-02-05T15:50:24.502Z,56.00
2019-02-05T15:52:52.759Z,57.30
2019-02-05T15:55:21.240Z,57.10
2019-02-05T15:57:49.671Z,58.10
2019-02-05T16:00:25.794Z,58.60
2019-02-05T16:02:54.022Z,59.10
2019-02-05T16:05:22.266Z,59.40
2019-02-05T16:07:50.530Z,60.20
2019-02-05T16:10:46.334Z,61.30
2019-02-05T16:13:14.599Z,62.20
2019-02-05T16:15:42.853Z,63.40
2019-02-05T16:18:11.093Z,64.00
2019-02-05T16:20:39.372Z,64.20
2019-02-05T16:23:07.602Z,64.80
2019-02-05T16:25:36.225Z,65.40
2019-02-05T16:28:04.478Z,66.10
2019-02-05T16:30:33.175Z,66.70
2019-02-05T16:33:01.421Z,67.70
2019-02-05T16:35:29.658Z,68.20
2019-02-05T16:37:57.912Z,68.70
2019-02-05T16:40:38.030Z,69.30
2019-02-05T16:43:06.539Z,69.10
2019-02-05T16:45:34.840Z,70.00
2019-02-05T16:48:03.105Z,70.40
2019-02-05T16:50:43.799Z,70.90
2019-02-05T16:53:12.440Z,71.70
2019-02-05T16:55:40.687Z,71.80
2019-02-05T16:58:08.929Z,72.30
2019-02-05T17:00:38.039Z,72.80
2019-02-05T17:03:06.947Z,73.60
2019-02-05T17:05:39.817Z,74.30
2019-02-05T17:08:08.601Z,74.90
2019-02-05T17:10:36.841Z,75.90
2019-02-05T17:13:05.384Z,75.50
2019-02-05T17:15:33.650Z,75.70
2019-02-05T17:18:01.911Z,76.30
2019-02-05T17:20:33.649Z,76.60
2019-02-05T17:23:02.031Z,77.00
2019-02-05T17:25:30.337Z,76.90
2019-02-05T17:28:00.521Z,76.80
2019-02-05T17:30:31.100Z,76.70
2019-02-05T17:32:59.364Z,75.80
2019-02-05T17:35:27.610Z,76.40
2019-02-05T17:37:55.882Z,76.90
2019-02-05T17:40:25.867Z,77.90
2019-02-05T17:42:55.022Z,77.80
2019-02-05T17:45:42.372Z,77.50
2019-02-05T17:48:13.338Z,77.90
2019-02-05T17:50:41.997Z,78.00
2019-02-05T17:53:10.289Z,78.80
2019-02-05T17:55:38.529Z,79.10
2019-02-05T17:58:06.801Z,79.50
2019-02-05T18:00:48.807Z,80.70
2019-02-05T18:03:17.236Z,81.20
2019-02-05T18:05:45.682Z,80.90
2019-02-05T18:08:14.156Z,80.20
2019-02-05T18:10:42.657Z,81.60
2019-02-05T18:13:11.210Z,81.40
2019-02-05T18:15:44.169Z,80.70
2019-02-05T18:18:12.448Z,81.20
2019-02-05T18:20:40.788Z,83.40
2019-02-05T18:23:09.159Z,84.70
2019-02-05T18:25:37.611Z,84.00
2019-02-05T18:28:05.968Z,84.00
2019-02-05T18:30:35.691Z,84.40
2019-02-05T18:33:05.864Z,85.80
2019-02-05T18:35:34.046Z,86.10
2019-02-05T18:38:08.351Z,85.60
2019-02-05T18:40:36.915Z,85.10
2019-02-05T18:43:06.143Z,85.10
2019-02-05T18:45:34.508Z,83.90
2019-02-05T18:48:02.863Z,84.40
2019-02-05T18:50:50.617Z,85.00
2019-02-05T18:53:18.919Z,85.90
2019-02-05T18:55:48.021Z,85.10
2019-02-05T18:58:16.424Z,84.30
2019-02-05T19:00:46.102Z,84.50
2019-02-05T19:03:15.983Z,86.00
2019-02-05T19:06:11.867Z,86.30
2019-02-05T19:08:40.146Z,86.60
2019-02-05T19:11:08.753Z,87.50
2019-02-05T19:13:37.020Z,87.80
2019-02-05T19:16:05.345Z,87.30
2019-02-05T19:18:33.632Z,87.00
2019-02-05T19:21:01.988Z,86.20
2019-02-05T19:23:30.296Z,86.70
2019-02-05T19:26:00.180Z,87.00
2019-02-05T19:28:30.083Z,85.90
2019-02-05T19:30:59.965Z,86.00
2019-02-05T19:33:28.221Z,85.60
2019-02-05T19:35:56.631Z,85.50
2019-02-05T19:38:24.865Z,85.60
2019-02-05T19:40:57.480Z,86.00
2019-02-05T19:43:23.651Z,85.90
2019-02-05T19:45:59.670Z,85.60
2019-02-05T19:48:29.557Z,85.30
2019-02-05T19:50:58.196Z,86.30
2019-02-05T19:53:26.509Z,84.70
2019-02-05T19:55:55.265Z,84.30
2019-02-05T19:58:23.493Z,83.90
2019-02-05T20:00:52.133Z,83.10
2019-02-05T20:03:20.385Z,82.80
2019-02-05T20:05:48.648Z,82.80
2019-02-05T20:08:16.922Z,83.00
2019-02-05T20:10:45.217Z,82.80
2019-02-05T20:13:13.468Z,83.00
2019-02-05T20:15:41.739Z,82.40
2019-02-05T20:18:10.465Z,82.70
2019-02-05T20:20:38.712Z,83.00
2019-02-05T20:23:06.980Z,83.10
2019-02-05T20:25:35.266Z,83.10
2019-02-05T20:28:03.495Z,83.30
2019-02-05T20:30:31.755Z,82.70
2019-02-05T20:33:00.025Z,82.60
2019-02-05T20:35:28.276Z,82.20
2019-02-05T20:37:56.618Z,82.00
2019-02-05T20:40:27.224Z,81.60
2019-02-05T20:42:55.489Z,81.20
2019-02-05T20:45:23.881Z,81.00
2019-02-05T20:47:52.145Z,80.80
2019-02-05T20:50:21.218Z,80.40
2019-02-05T20:52:49.589Z,80.60
2019-02-05T20:55:19.130Z,80.30
2019-02-05T20:57:47.549Z,80.00
2019-02-05T21:00:18.948Z,79.90
2019-02-05T21:02:47.267Z,80.00
2019-02-05T21:05:19.530Z,80.10
2019-02-05T21:07:48.226Z,80.10
2019-02-05T21:10:28.261Z,80.30
2019-02-05T21:12:56.502Z,80.60
2019-02-05T21:15:24.805Z,80.90
2019-02-05T21:17:53.075Z,81.10
2019-02-05T21:20:29.569Z,82.00
2019-02-05T21:22:56.689Z,82.80
2019-02-05T21:25:24.049Z,82.50
2019-02-05T21:27:52.292Z,83.70
2019-02-05T21:30:21.586Z,84.90
2019-02-05T21:32:49.907Z,84.80
2019-02-05T21:35:18.155Z,84.90
2019-02-05T21:37:46.411Z,85.60
2019-02-05T21:40:27.814Z,85.80
2019-02-05T21:42:56.098Z,86.10
2019-02-05T21:45:29.587Z,86.90
2019-02-05T21:47:57.864Z,87.10
2019-02-05T21:50:26.111Z,87.40
2019-02-05T21:52:54.356Z,87.40
2019-02-05T21:55:26.561Z,87.80
2019-02-05T21:57:54.814Z,88.00
2019-02-05T22:00:31.988Z,87.80
2019-02-05T22:03:00.303Z,88.10
2019-02-05T22:05:30.343Z,88.00
2019-02-05T22:07:59.039Z,87.90
2019-02-05T22:10:27.442Z,87.70
2019-02-05T22:12:55.694Z,87.90
2019-02-05T22:15:24.228Z,87.50
2019-02-05T22:17:52.557Z,87.50
2019-02-05T22:20:23.473Z,87.30
2019-02-05T22:22:51.744Z,87.20
2019-02-05T22:25:24.989Z,87.50
2019-02-05T22:27:53.324Z,87.80
2019-02-05T22:30:23.721Z,87.80
2019-02-05T22:32:52.037Z,87.90
2019-02-05T22:35:20.546Z,88.10
2019-02-05T22:37:49.085Z,88.20
2019-02-05T22:40:19.520Z,88.10
2019-02-05T22:42:47.777Z,88.30
2019-02-05T22:45:21.465Z,88.40
2019-02-05T22:47:49.943Z,88.60
2019-02-05T22:50:21.322Z,88.60
2019-02-05T22:52:49.673Z,89.10
2019-02-05T22:55:18.002Z,88.90
2019-02-05T22:57:46.328Z,88.70
2019-02-05T23:00:34.717Z,88.50
2019-02-05T23:03:03.063Z,88.50
2019-02-05T23:05:50.925Z,88.30
2019-02-05T23:08:19.271Z,88.10
2019-02-05T23:11:14.958Z,87.80
2019-02-05T23:13:43.362Z,87.70
2019-02-05T23:16:11.618Z,87.60
2019-02-05T23:18:40.016Z,87.50
2019-02-05T23:21:08.328Z,87.10
2019-02-05T23:23:36.657Z,86.90
2019-02-05T23:26:05.200Z,86.50
2019-02-05T23:28:33.923Z,85.70
2019-02-05T23:31:02.210Z,86.00
2019-02-05T23:33:30.446Z,86.30
2019-02-05T23:35:58.701Z,85.40
2019-02-05T23:38:29.362Z,85.50
2019-02-05T23:40:56.969Z,85.40
2019-02-05T23:43:25.205Z,85.50
2019-02-05T23:46:01.473Z,85.50
2019-02-05T23:48:23.441Z,85.50
2019-02-05T23:50:51.674Z,85.10
2019-02-05T23:53:19.939Z,85.30
2019-02-05T23:55:48.257Z,85.50
2019-02-05T23:58:16.494Z,86.10
